Time;durP1;ratioP1;P1;durP2;ratioP2;P2;SDS_P1;SDS_P2;PMS_P1;PMS_P2;Temp;Humidity;BMP_temperature;BMP_pressure;BME280_temperature;BME280_humidity;BME280_pressure;Samples;Min_cycle;Max_cycle;Signal;HPM_P1;HPM_P2
2021/12/27 00:02:03;;;;;;;0.88;0.85;;;3.80;99.90;;;;;;5069752;28;20487;-70
2021/12/27 00:04:28;;;;;;;0.10;0.10;;;3.80;99.90;;;;;;5071001;28;20037;-70
2021/12/27 00:06:54;;;;;;;3.45;1.52;;;3.80;99.90;;;;;;5069838;28;20033;-69
2021/12/27 00:09:20;;;;;;;3.40;1.95;;;3.90;99.90;;;;;;5071934;28;20046;-70
2021/12/27 00:11:46;;;;;;;0.60;0.60;;;4.00;99.90;;;;;;5074588;28;20070;-69
2021/12/27 00:14:12;;;;;;;0.10;0.10;;;4.10;99.90;;;;;;5074844;28;20025;-71
2021/12/27 00:16:37;;;;;;;1.00;1.00;;;4.00;99.90;;;;;;5073736;28;20496;-71
2021/12/27 00:19:03;;;;;;;1.60;0.85;;;4.00;99.90;;;;;;5073426;28;20512;-71
2021/12/27 00:21:29;;;;;;;1.48;1.38;;;3.90;99.90;;;;;;5073472;28;20032;-70
2021/12/27 00:23:55;;;;;;;0.20;0.20;;;3.80;99.90;;;;;;5073132;28;20033;-70
2021/12/27 00:26:20;;;;;;;0.77;0.77;;;3.80;99.90;;;;;;5074358;28;20053;-70
2021/12/27 00:28:46;;;;;;;0.20;0.20;;;3.90;99.90;;;;;;5073062;28;20058;-71
2021/12/27 00:31:12;;;;;;;0.20;0.20;;;4.00;99.90;;;;;;5074486;28;20029;-71
2021/12/27 00:33:38;;;;;;;1.58;1.48;;;4.10;99.90;;;;;;5074613;28;20052;-71
2021/12/27 00:36:04;;;;;;;0.40;0.40;;;4.10;99.90;;;;;;5074190;28;20041;-71
2021/12/27 00:38:30;;;;;;;0.22;0.22;;;4.20;99.90;;;;;;5072784;28;20036;-71
2021/12/27 00:40:55;;;;;;;0.20;0.20;;;4.20;99.90;;;;;;5074420;28;20020;-71
2021/12/27 00:43:21;;;;;;;1.33;1.27;;;4.20;99.90;;;;;;5073912;28;20115;-71
2021/12/27 00:45:47;;;;;;;0.95;0.93;;;4.10;99.90;;;;;;5072865;28;20032;-71
2021/12/27 00:48:15;;;;;;;1.48;1.38;;;4.20;99.90;;;;;;5073791;28;20060;-71
2021/12/27 00:50:44;;;;;;;0.63;0.63;;;4.20;99.90;;;;;;5074206;28;20032;-71
2021/12/27 00:53:10;;;;;;;0.47;0.47;;;4.10;99.90;;;;;;5073020;28;20036;-71
2021/12/27 00:55:36;;;;;;;0.45;0.45;;;4.10;99.90;;;;;;5073896;28;20071;-71
2021/12/27 00:58:03;;;;;;;1.27;1.17;;;4.10;99.90;;;;;;5073138;28;20075;-71
2021/12/27 01:00:29;;;;;;;2.60;2.40;;;4.10;99.90;;;;;;5073978;28;20044;-71
2021/12/27 01:02:55;;;;;;;2.55;2.35;;;4.20;99.90;;;;;;5072378;28;20465;-70
2021/12/27 01:05:24;;;;;;;2.70;2.50;;;4.20;99.90;;;;;;5073789;28;20028;-71
2021/12/27 01:07:51;;;;;;;0.95;0.90;;;4.20;99.90;;;;;;5073548;28;20036;-71
2021/12/27 01:16:10;;;;;;;0.10;0.10;;;4.10;99.90;;;;;;5072338;28;20469;-71
2021/12/27 01:18:57;;;;;;;0.98;0.93;;;4.20;99.90;;;;;;5058336;28;20079;-71
2021/12/27 01:21:25;;;;;;;0.20;0.20;;;4.20;99.90;;;;;;5071373;28;20036;-71
2021/12/27 01:23:52;;;;;;;2.30;0.75;;;4.30;99.90;;;;;;5072049;28;20036;-71
2021/12/27 01:26:18;;;;;;;0.55;0.55;;;4.20;99.90;;;;;;5072229;28;20048;-71
2021/12/27 01:28:44;;;;;;;0.38;0.38;;;4.20;99.90;;;;;;5073589;28;20036;-71
2021/12/27 01:31:11;;;;;;;0.65;0.55;;;4.10;99.90;;;;;;5073217;28;20032;-71
2021/12/27 01:33:37;;;;;;;0.57;0.57;;;4.10;99.90;;;;;;5072022;28;20111;-71
2021/12/27 01:36:05;;;;;;;0.00;0.00;;;4.10;99.90;;;;;;5072227;28;20111;-70
2021/12/27 01:38:35;;;;;;;0.30;0.30;;;4.10;99.90;;;;;;5072936;28;20032;-71
2021/12/27 01:41:01;;;;;;;0.30;0.30;;;4.10;99.90;;;;;;5055721;28;20040;-71
2021/12/27 01:43:33;;;;;;;0.13;0.13;;;4.10;99.90;;;;;;5073045;28;20078;-70
2021/12/27 01:46:16;;;;;;;1.05;0.95;;;4.10;99.90;;;;;;5071577;28;20040;-70
2021/12/27 01:48:48;;;;;;;3.05;2.17;;;4.10;99.90;;;;;;5055276;28;20499;-70
2021/12/27 01:51:17;;;;;;;0.30;0.30;;;4.10;99.90;;;;;;5072879;28;20036;-70
2021/12/27 01:53:45;;;;;;;0.32;0.32;;;4.10;99.90;;;;;;5072627;28;20029;-70
2021/12/27 01:56:13;;;;;;;0.10;0.10;;;4.20;99.90;;;;;;5072712;28;20392;-69
2021/12/27 01:58:39;;;;;;;0.20;0.20;;;4.20;99.90;;;;;;5071354;28;20032;-70
2021/12/27 02:01:09;;;;;;;1.65;1.55;;;4.20;99.90;;;;;;5072874;28;20454;-70
2021/12/27 02:03:37;;;;;;;2.05;1.38;;;4.30;99.90;;;;;;5071062;28;20460;-70
2021/12/27 02:06:05;;;;;;;0.85;0.85;;;4.20;99.90;;;;;;5071169;28;20040;-70
2021/12/27 02:08:32;;;;;;;0.80;0.80;;;4.20;99.90;;;;;;5055044;28;20029;-70
2021/12/27 02:10:57;;;;;;;0.43;0.40;;;4.20;99.90;;;;;;5072709;28;20032;-70
2021/12/27 02:13:23;;;;;;;2.60;2.40;;;4.30;99.90;;;;;;5054637;28;20086;-70
2021/12/27 02:15:50;;;;;;;3.72;2.67;;;4.30;99.90;;;;;;5071219;28;20366;-70
2021/12/27 02:18:16;;;;;;;0.45;0.45;;;4.30;99.90;;;;;;5054539;28;20047;-70
2021/12/27 02:20:43;;;;;;;0.52;0.43;;;4.40;99.90;;;;;;5072302;28;20477;-70
2021/12/27 02:23:17;;;;;;;0.10;0.10;;;4.40;99.90;;;;;;5070909;28;20025;-70
2021/12/27 02:25:46;;;;;;;1.35;1.23;;;4.50;99.90;;;;;;5071061;28;20043;-70
2021/12/27 02:28:13;;;;;;;0.50;0.50;;;4.40;99.90;;;;;;5072145;28;20032;-70
2021/12/27 02:30:42;;;;;;;1.08;0.77;;;4.50;99.90;;;;;;5070932;28;20035;-70
2021/12/27 02:33:09;;;;;;;0.38;0.38;;;4.40;99.90;;;;;;5070796;28;20478;-71
2021/12/27 02:35:46;;;;;;;0.20;0.20;;;4.40;99.90;;;;;;5070676;28;20755;-70
2021/12/27 02:38:18;;;;;;;0.80;0.80;;;4.40;99.90;;;;;;5070795;28;20480;-70
2021/12/27 02:40:46;;;;;;;1.25;1.15;;;4.40;99.90;;;;;;5071899;28;20041;-70
2021/12/27 02:43:16;;;;;;;3.88;2.13;;;4.40;99.90;;;;;;5070635;28;20033;-70
2021/12/27 02:45:58;;;;;;;0.35;0.35;;;4.40;99.90;;;;;;5070669;28;20037;-70
2021/12/27 02:48:33;;;;;;;0.45;0.45;;;4.40;99.90;;;;;;5070607;28;20109;-70
2021/12/27 02:50:59;;;;;;;0.20;0.20;;;4.40;99.90;;;;;;5070853;28;20059;-71
2021/12/27 02:53:28;;;;;;;0.30;0.30;;;4.50;99.90;;;;;;5071687;28;20044;-71
2021/12/27 02:55:56;;;;;;;3.25;2.33;;;4.50;99.90;;;;;;5070756;28;20109;-70
2021/12/27 02:58:23;;;;;;;0.10;0.10;;;4.50;99.90;;;;;;5053995;28;20032;-71
2021/12/27 03:00:59;;;;;;;0.82;0.82;;;4.60;99.90;;;;;;5070430;28;20083;-70
2021/12/27 03:03:25;;;;;;;0.15;0.15;;;4.50;99.90;;;;;;5071501;28;20098;-71
2021/12/27 03:05:50;;;;;;;1.23;0.80;;;4.50;99.90;;;;;;5071605;28;20397;-70
2021/12/27 03:08:18;;;;;;;0.90;0.85;;;4.60;99.90;;;;;;5071892;28;20021;-71
2021/12/27 03:10:49;;;;;;;0.38;0.38;;;4.60;99.90;;;;;;5070735;28;20040;-71
2021/12/27 03:13:22;;;;;;;0.30;0.30;;;4.70;99.90;;;;;;5071623;28;20036;-71
2021/12/27 03:16:10;;;;;;;0.20;0.20;;;4.70;99.90;;;;;;5054525;28;20043;-70
2021/12/27 03:18:39;;;;;;;0.00;0.00;;;4.80;99.90;;;;;;5070432;28;20037;-70
2021/12/27 03:21:06;;;;;;;0.10;0.10;;;4.80;99.90;;;;;;5071465;28;20028;-70
2021/12/27 03:23:33;;;;;;;0.10;0.10;;;4.70;99.90;;;;;;5070377;28;20039;-71
2021/12/27 03:25:59;;;;;;;0.10;0.10;;;4.70;99.90;;;;;;5071603;28;20040;-71
2021/12/27 03:28:25;;;;;;;0.22;0.22;;;4.80;99.90;;;;;;5070276;28;20036;-71
2021/12/27 03:30:51;;;;;;;1.65;1.55;;;4.90;99.90;;;;;;5070391;28;20039;-71
2021/12/27 03:33:21;;;;;;;0.10;0.10;;;4.90;99.90;;;;;;5071658;28;20058;-70
2021/12/27 03:35:59;;;;;;;0.35;0.35;;;4.90;99.90;;;;;;5070170;28;20032;-71
2021/12/27 03:38:26;;;;;;;0.70;0.65;;;4.90;99.90;;;;;;5071202;28;20056;-71
2021/12/27 03:40:52;;;;;;;1.45;1.05;;;5.00;99.90;;;;;;5070010;28;20037;-71
2021/12/27 03:43:18;;;;;;;2.75;1.83;;;5.00;99.90;;;;;;5071404;28;20355;-71
2021/12/27 03:45:43;;;;;;;0.52;0.52;;;5.00;99.90;;;;;;5073387;28;20034;-71
2021/12/27 03:48:11;;;;;;;0.22;0.22;;;5.00;99.90;;;;;;5074987;28;20400;-71
2021/12/27 03:50:38;;;;;;;2.05;1.95;;;5.00;99.90;;;;;;5074847;28;20025;-71
2021/12/27 03:53:05;;;;;;;1.58;1.48;;;5.10;99.90;;;;;;5075379;28;20035;-71
2021/12/27 03:55:31;;;;;;;0.10;0.10;;;5.00;99.90;;;;;;5073777;28;20035;-71
2021/12/27 03:58:07;;;;;;;0.63;0.63;;;5.10;99.90;;;;;;5057113;28;20040;-71
2021/12/27 04:03:21;;;;;;;0.95;0.95;;;5.20;99.90;;;;;;5073842;28;20123;-71
2021/12/27 04:05:49;;;;;;;1.58;1.05;;;5.20;99.90;;;;;;5074591;28;20119;-71
2021/12/27 04:08:18;;;;;;;0.10;0.10;;;5.20;99.90;;;;;;5073885;28;20024;-71
2021/12/27 04:10:45;;;;;;;0.20;0.20;;;5.20;99.90;;;;;;5057067;28;20032;-71
2021/12/27 04:13:12;;;;;;;0.20;0.20;;;5.50;99.90;;;;;;5073441;28;20025;-71
2021/12/27 04:15:40;;;;;;;0.50;0.43;;;5.50;99.90;;;;;;5074554;28;20516;-71
2021/12/27 04:18:09;;;;;;;1.13;1.02;;;5.60;99.90;;;;;;5074626;28;20039;-71
2021/12/27 04:20:35;;;;;;;1.38;1.27;;;5.60;99.90;;;;;;5074692;28;20078;-71
2021/12/27 04:23:01;;;;;;;2.53;2.38;;;5.50;99.90;;;;;;5073546;28;20120;-71
2021/12/27 04:25:27;;;;;;;0.55;0.55;;;5.50;99.90;;;;;;5074148;28;20036;-71
2021/12/27 04:27:52;;;;;;;0.20;0.20;;;5.50;99.90;;;;;;5074475;28;20104;-71
2021/12/27 04:30:20;;;;;;;0.10;0.10;;;5.50;99.90;;;;;;5074888;28;20041;-71
2021/12/27 04:32:49;;;;;;;0.13;0.13;;;5.50;99.90;;;;;;5074545;28;20028;-70
2021/12/27 04:35:16;;;;;;;1.02;0.93;;;5.50;99.90;;;;;;5073182;28;20436;-71
2021/12/27 04:37:42;;;;;;;0.22;0.22;;;5.50;99.90;;;;;;5074233;28;20039;-71
2021/12/27 04:40:11;;;;;;;1.02;1.02;;;5.50;99.90;;;;;;5074552;28;20059;-70
2021/12/27 04:42:40;;;;;;;0.10;0.10;;;5.50;99.90;;;;;;5074223;28;20025;-71
2021/12/27 04:45:07;;;;;;;2.80;2.60;;;5.60;99.90;;;;;;5073089;28;20127;-71
2021/12/27 04:47:33;;;;;;;0.10;0.10;;;5.70;99.90;;;;;;5072596;28;20044;-71
2021/12/27 04:49:59;;;;;;;0.25;0.25;;;5.70;99.90;;;;;;5072772;28;20032;-71
2021/12/27 04:52:24;;;;;;;1.10;1.08;;;5.70;99.90;;;;;;5074329;28;20028;-71
2021/12/27 04:54:50;;;;;;;1.45;1.35;;;5.80;99.90;;;;;;5073000;28;20040;-71
2021/12/27 04:57:16;;;;;;;4.28;2.15;;;5.80;99.90;;;;;;5072715;28;20123;-70
2021/12/27 04:59:42;;;;;;;0.93;0.93;;;5.80;99.90;;;;;;5073631;28;20050;-70
2021/12/27 05:02:08;;;;;;;0.85;0.85;;;5.80;99.90;;;;;;5073949;28;20032;-70
2021/12/27 05:04:35;;;;;;;5.18;3.40;;;5.70;99.90;;;;;;5072681;28;20059;-71
2021/12/27 05:07:02;;;;;;;1.65;1.55;;;5.70;99.90;;;;;;5073651;28;20028;-71
2021/12/27 05:09:27;;;;;;;1.05;1.05;;;5.80;99.90;;;;;;5073558;28;20489;-71
2021/12/27 05:11:53;;;;;;;0.85;0.85;;;5.80;99.90;;;;;;5073581;28;20072;-71
2021/12/27 05:14:19;;;;;;;1.13;1.10;;;5.80;99.90;;;;;;5073938;28;20153;-70
2021/12/27 05:16:45;;;;;;;0.30;0.30;;;5.80;99.90;;;;;;5072242;28;20478;-70
2021/12/27 05:19:10;;;;;;;1.52;1.42;;;5.80;99.90;;;;;;5055532;28;20068;-70
2021/12/27 05:21:36;;;;;;;1.42;1.35;;;5.80;99.90;;;;;;5072362;28;20035;-70
2021/12/27 05:24:02;;;;;;;0.25;0.25;;;5.80;99.90;;;;;;5073180;28;20032;-70
2021/12/27 05:26:28;;;;;;;0.98;0.98;;;5.80;99.90;;;;;;5073145;28;20036;-69
2021/12/27 05:28:54;;;;;;;0.10;0.10;;;5.90;99.90;;;;;;5073357;28;20029;-69
2021/12/27 05:31:20;;;;;;;3.30;1.20;;;5.80;99.90;;;;;;5071904;28;20029;-69
2021/12/27 05:33:46;;;;;;;7.68;2.97;;;5.90;99.90;;;;;;5073093;28;20024;-69
2021/12/27 05:36:12;;;;;;;4.78;2.65;;;5.90;99.90;;;;;;5072243;28;20094;-69
2021/12/27 05:38:39;;;;;;;3.63;1.75;;;5.90;99.90;;;;;;5072869;28;20106;-69
2021/12/27 05:41:05;;;;;;;0.35;0.35;;;5.90;99.90;;;;;;5071776;28;20032;-69
2021/12/27 05:43:31;;;;;;;2.58;1.65;;;5.90;99.90;;;;;;5071569;28;20041;-69
2021/12/27 05:45:57;;;;;;;9.48;2.38;;;5.90;99.90;;;;;;5072991;28;20041;-70
2021/12/27 05:48:23;;;;;;;0.22;0.22;;;5.90;99.90;;;;;;5071677;28;20127;-69
2021/12/27 05:50:49;;;;;;;0.10;0.10;;;5.90;99.90;;;;;;5072721;28;20028;-69
2021/12/27 05:53:16;;;;;;;1.60;1.50;;;6.00;99.90;;;;;;5071602;28;20058;-69
2021/12/27 05:55:43;;;;;;;2.63;2.42;;;6.00;99.90;;;;;;5072900;28;20032;-69
2021/12/27 05:58:09;;;;;;;0.40;0.40;;;6.00;99.90;;;;;;5073030;28;20033;-69
2021/12/27 06:00:35;;;;;;;0.35;0.35;;;6.00;99.90;;;;;;5072586;28;20032;-69
2021/12/27 06:03:02;;;;;;;0.10;0.10;;;6.00;99.90;;;;;;5072862;28;20067;-69
2021/12/27 06:05:28;;;;;;;0.55;0.55;;;6.10;99.90;;;;;;5072490;28;20058;-69
2021/12/27 06:07:54;;;;;;;0.15;0.15;;;6.20;99.90;;;;;;5072171;28;20473;-69
2021/12/27 06:10:22;;;;;;;0.10;0.10;;;6.20;99.90;;;;;;5072433;28;20066;-69
2021/12/27 06:12:49;;;;;;;0.10;0.10;;;6.20;99.90;;;;;;5072516;28;20032;-69
2021/12/27 06:15:15;;;;;;;0.60;0.40;;;6.20;99.90;;;;;;5072713;28;20037;-69
2021/12/27 06:17:43;;;;;;;2.67;1.05;;;6.20;99.90;;;;;;5054434;28;20103;-69
2021/12/27 06:20:15;;;;;;;4.00;2.03;;;6.20;99.90;;;;;;5072220;28;20107;-69
2021/12/27 06:22:51;;;;;;;0.10;0.10;;;6.20;99.90;;;;;;5071004;28;20032;-69
2021/12/27 06:25:17;;;;;;;0.13;0.13;;;6.10;99.90;;;;;;5071029;28;20032;-69
2021/12/27 06:27:43;;;;;;;0.50;0.47;;;6.20;99.90;;;;;;5070686;28;20025;-69
2021/12/27 06:30:12;;;;;;;0.57;0.57;;;6.20;99.90;;;;;;5070915;28;20094;-69
2021/12/27 06:32:39;;;;;;;2.05;1.48;;;6.20;99.90;;;;;;5072006;28;20552;-69
2021/12/27 06:35:10;;;;;;;1.40;1.30;;;6.20;99.90;;;;;;5072203;28;20116;-69
2021/12/27 06:37:37;;;;;;;0.98;0.98;;;6.20;99.90;;;;;;5070676;28;20025;-69
2021/12/27 06:40:05;;;;;;;1.50;0.93;;;6.20;99.90;;;;;;5071815;28;20033;-69
2021/12/27 06:42:30;;;;;;;0.60;0.60;;;6.20;99.90;;;;;;5070693;28;20037;-69
2021/12/27 06:44:56;;;;;;;0.85;0.75;;;6.20;99.90;;;;;;5053922;28;20036;-69
2021/12/27 06:47:22;;;;;;;0.90;0.90;;;6.20;99.90;;;;;;5070463;28;20170;-69
2021/12/27 06:49:48;;;;;;;0.43;0.43;;;6.20;99.90;;;;;;5071867;28;20114;-69
2021/12/27 06:52:15;;;;;;;1.42;1.33;;;6.20;99.90;;;;;;5071953;28;20028;-69
2021/12/27 06:54:41;;;;;;;0.60;0.60;;;6.20;99.90;;;;;;5070375;28;20040;-70
2021/12/27 06:57:07;;;;;;;0.30;0.30;;;6.40;99.90;;;;;;5072041;28;20025;-70
2021/12/27 06:59:33;;;;;;;0.60;0.60;;;6.50;99.90;;;;;;5071769;28;20028;-69
2021/12/27 07:01:59;;;;;;;0.20;0.20;;;6.50;99.90;;;;;;5070701;28;20039;-69
2021/12/27 07:04:26;;;;;;;0.25;0.25;;;6.50;99.90;;;;;;5071940;28;20036;-70
2021/12/27 07:06:52;;;;;;;0.17;0.17;;;6.50;99.90;;;;;;5037076;28;20024;-70
2021/12/27 07:09:18;;;;;;;1.92;1.83;;;6.50;99.90;;;;;;5071595;28;20033;-70
2021/12/27 07:11:44;;;;;;;0.43;0.43;;;6.40;99.90;;;;;;5070489;28;20044;-70
2021/12/27 07:14:10;;;;;;;0.35;0.35;;;6.40;99.90;;;;;;5071546;28;20516;-70
2021/12/27 07:16:36;;;;;;;0.98;0.98;;;6.40;99.90;;;;;;5071346;28;20420;-70
2021/12/27 07:19:02;;;;;;;0.88;0.77;;;6.40;99.90;;;;;;5071205;28;20028;-70
2021/12/27 07:21:28;;;;;;;0.55;0.55;;;6.60;99.90;;;;;;5071729;28;20093;-70
2021/12/27 07:23:54;;;;;;;1.27;1.17;;;6.50;99.90;;;;;;5071234;28;20097;-69
2021/12/27 07:26:19;;;;;;;0.25;0.25;;;6.60;99.90;;;;;;5070545;28;20044;-70
2021/12/27 07:28:45;;;;;;;5.97;2.20;;;6.50;99.90;;;;;;5071325;28;20028;-69
2021/12/27 07:31:11;;;;;;;0.15;0.15;;;6.60;99.90;;;;;;5071378;28;20392;-70
2021/12/27 07:33:37;;;;;;;1.55;1.45;;;6.60;99.90;;;;;;5069656;28;20080;-70
2021/12/27 07:36:07;;;;;;;0.38;0.38;;;6.70;99.90;;;;;;5070252;28;20029;-72
2021/12/27 07:38:35;;;;;;;0.68;0.68;;;6.70;99.90;;;;;;5071631;28;20115;-76
2021/12/27 07:41:02;;;;;;;0.15;0.15;;;6.80;99.90;;;;;;5071529;28;20040;-76
2021/12/27 07:43:28;;;;;;;6.72;1.05;;;6.70;99.90;;;;;;5069834;28;20480;-76
2021/12/27 07:45:54;;;;;;;0.10;0.10;;;6.80;99.90;;;;;;5069824;28;20036;-76
2021/12/27 07:48:20;;;;;;;0.60;0.60;;;6.90;99.90;;;;;;5053848;28;20358;-76
2021/12/27 07:50:46;;;;;;;0.40;0.40;;;6.90;99.90;;;;;;5071216;28;20036;-76
2021/12/27 07:53:11;;;;;;;2.40;2.20;;;6.90;99.90;;;;;;5071333;28;20032;-76
2021/12/27 07:55:37;;;;;;;0.00;0.00;;;7.00;99.90;;;;;;5069871;28;20064;-76
2021/12/27 07:58:03;;;;;;;0.20;0.20;;;7.00;99.90;;;;;;5071472;28;20032;-77
2021/12/27 08:00:30;;;;;;;16.67;0.93;;;7.00;99.90;;;;;;5053685;28;20177;-76
2021/12/27 08:02:55;;;;;;;1.02;0.93;;;7.00;99.90;;;;;;5070983;28;20496;-77
2021/12/27 08:05:21;;;;;;;0.65;0.65;;;7.10;99.90;;;;;;5070272;28;20064;-74
2021/12/27 08:07:47;;;;;;;0.80;0.80;;;7.10;99.90;;;;;;5069850;28;20150;-74
2021/12/27 08:10:15;;;;;;;1.27;0.65;;;7.10;99.90;;;;;;5070146;28;20111;-73
2021/12/27 08:12:42;;;;;;;1.98;1.83;;;7.20;99.90;;;;;;5053438;28;20147;-74
2021/12/27 08:15:11;;;;;;;0.40;0.40;;;7.20;99.90;;;;;;5070996;28;20392;-74
2021/12/27 08:17:37;;;;;;;1.95;1.80;;;7.20;99.90;;;;;;5069819;28;20028;-74
2021/12/27 08:20:06;;;;;;;1.13;0.95;;;7.20;99.90;;;;;;5071027;28;20043;-74
2021/12/27 08:22:32;;;;;;;2.30;2.10;;;7.20;99.90;;;;;;5070951;28;20028;-73
2021/12/27 08:24:58;;;;;;;0.05;0.05;;;7.20;99.90;;;;;;5069422;28;20036;-73
2021/12/27 08:27:27;;;;;;;0.40;0.40;;;7.30;99.90;;;;;;5053137;28;20463;-73
2021/12/27 08:29:53;;;;;;;5.18;2.22;;;7.30;99.90;;;;;;5071185;28;20468;-73
2021/12/27 08:32:18;;;;;;;0.40;0.40;;;7.30;99.90;;;;;;5074699;28;20082;-73
2021/12/27 08:34:44;;;;;;;0.40;0.40;;;7.30;99.90;;;;;;5074329;28;20040;-73
2021/12/27 08:37:11;;;;;;;0.10;0.10;;;7.30;99.90;;;;;;5073133;28;20025;-73
2021/12/27 08:39:38;;;;;;;3.40;0.98;;;7.40;99.90;;;;;;5073033;28;20455;-73
2021/12/27 08:42:07;;;;;;;1.10;1.10;;;7.30;99.90;;;;;;5072834;28;20031;-73
2021/12/27 08:44:34;;;;;;;0.20;0.20;;;7.40;99.90;;;;;;5074069;28;20469;-73
2021/12/27 08:47:00;;;;;;;0.20;0.20;;;7.40;99.90;;;;;;5073844;28;20863;-73
2021/12/27 08:49:26;;;;;;;4.00;1.58;;;7.30;99.90;;;;;;5073135;28;20025;-73
2021/12/27 08:51:52;;;;;;;0.15;0.15;;;7.20;99.90;;;;;;5073990;28;20422;-73
2021/12/27 08:54:18;;;;;;;0.03;0.03;;;7.20;99.90;;;;;;5072971;28;20025;-73
2021/12/27 08:56:44;;;;;;;0.45;0.43;;;7.20;99.90;;;;;;5072726;28;20112;-74
2021/12/27 08:59:09;;;;;;;1.20;0.90;;;7.20;99.90;;;;;;5073968;28;20630;-73
2021/12/27 09:01:35;;;;;;;1.90;0.80;;;7.20;99.90;;;;;;5056255;28;20106;-73
2021/12/27 09:04:01;;;;;;;6.40;3.40;;;7.20;99.90;;;;;;5073698;28;20074;-73
2021/12/27 09:06:27;;;;;;;0.73;0.73;;;7.20;99.90;;;;;;5073679;28;20025;-74
2021/12/27 09:08:53;;;;;;;0.30;0.30;;;7.30;99.90;;;;;;5073719;28;20040;-73
2021/12/27 09:11:19;;;;;;;0.20;0.20;;;7.30;99.90;;;;;;5073917;28;20085;-72
2021/12/27 09:13:44;;;;;;;0.10;0.10;;;7.60;99.90;;;;;;5072650;28;20029;-73
2021/12/27 09:16:13;;;;;;;2.83;1.35;;;7.70;99.90;;;;;;5073705;28;20162;-73
2021/12/27 09:18:39;;;;;;;0.95;0.95;;;7.70;99.90;;;;;;5073970;28;20033;-73
2021/12/27 09:21:05;;;;;;;0.43;0.43;;;7.80;99.90;;;;;;5073436;28;20051;-74
2021/12/27 09:23:31;;;;;;;6.13;4.10;;;8.00;99.90;;;;;;5073694;28;20029;-72
2021/12/27 09:25:56;;;;;;;0.10;0.10;;;8.10;99.90;;;;;;5072351;28;20142;-73
2021/12/27 09:28:23;;;;;;;0.35;0.35;;;8.10;99.90;;;;;;5073655;28;20047;-73
2021/12/27 09:30:48;;;;;;;0.52;0.52;;;8.10;99.90;;;;;;5073516;28;20033;-73
2021/12/27 09:33:14;;;;;;;1.13;1.02;;;8.30;99.90;;;;;;5073619;28;20434;-73
2021/12/27 09:35:40;;;;;;;1.88;1.45;;;8.20;99.90;;;;;;5072347;28;20044;-73
2021/12/27 09:38:08;;;;;;;2.13;1.90;;;8.20;99.90;;;;;;5072091;28;20036;-74
2021/12/27 09:40:34;;;;;;;1.17;0.80;;;8.40;99.90;;;;;;5073073;28;20020;-73
2021/12/27 09:43:00;;;;;;;0.25;0.25;;;8.30;99.90;;;;;;5071247;28;20071;-73
2021/12/27 09:45:27;;;;;;;0.98;0.85;;;8.30;99.90;;;;;;5073273;28;20477;-73
2021/12/27 09:47:53;;;;;;;2.72;1.50;;;8.60;99.90;;;;;;5072730;28;20051;-73
2021/12/27 09:50:30;;;;;;;0.10;0.10;;;8.50;99.90;;;;;;5073326;28;20111;-73
2021/12/27 09:52:55;;;;;;;0.38;0.38;;;8.60;99.90;;;;;;5071520;28;20120;-73
2021/12/27 09:55:22;;;;;;;0.77;0.77;;;8.70;99.90;;;;;;5073277;28;20115;-73
2021/12/27 09:57:50;;;;;;;0.40;0.40;;;8.90;99.90;;;;;;5072637;28;20099;-73
2021/12/27 10:00:17;;;;;;;0.40;0.40;;;9.00;99.90;;;;;;5071550;28;20060;-73
2021/12/27 10:02:43;;;;;;;0.35;0.35;;;9.50;99.90;;;;;;5072721;28;20024;-73
2021/12/27 10:05:09;;;;;;;2.25;1.30;;;9.50;99.90;;;;;;5071374;28;20047;-73
2021/12/27 10:07:41;;;;;;;1.88;1.75;;;9.80;99.90;;;;;;5072937;28;20469;-73
2021/12/27 10:10:10;;;;;;;0.10;0.10;;;9.60;99.90;;;;;;5072907;28;20040;-72
2021/12/27 10:12:37;;;;;;;0.52;0.52;;;9.70;99.90;;;;;;5071675;28;20051;-73
2021/12/27 10:15:08;;;;;;;0.73;0.73;;;10.20;99.90;;;;;;5071215;28;20040;-72
2021/12/27 10:17:37;;;;;;;0.68;0.22;;;10.70;99.90;;;;;;5071598;28;20062;-72
2021/12/27 10:20:15;;;;;;;0.25;0.25;;;10.30;99.90;;;;;;5071309;28;20033;-72
2021/12/27 10:22:45;;;;;;;0.73;0.52;;;10.90;99.90;;;;;;5054527;28;20056;-73
2021/12/27 10:25:18;;;;;;;1.73;1.63;;;11.30;99.90;;;;;;5072383;28;20036;-72
2021/12/27 10:27:46;;;;;;;0.00;0.00;;;11.70;99.90;;;;;;5071457;28;20059;-72
2021/12/27 10:30:19;;;;;;;0.00;0.00;;;11.70;99.90;;;;;;5070825;28;20032;-71
2021/12/27 10:33:14;;;;;;;0.32;0.32;;;11.90;99.90;;;;;;5054689;28;20025;-72
2021/12/27 10:35:47;;;;;;;0.52;0.15;;;13.00;99.90;;;;;;5072372;28;20060;-71
2021/12/27 10:38:28;;;;;;;1.33;1.23;;;12.30;99.90;;;;;;5072069;28;20033;-72
2021/12/27 10:40:57;;;;;;;0.00;0.00;;;11.30;99.90;;;;;;5071809;28;20032;-72
2021/12/27 10:43:43;;;;;;;0.82;0.77;;;11.10;99.90;;;;;;5072320;28;20032;-72
2021/12/27 10:46:14;;;;;;;0.03;0.03;;;11.10;99.90;;;;;;5070422;28;20032;-72
2021/12/27 10:48:55;;;;;;;0.77;0.73;;;11.20;99.90;;;;;;5071113;28;20043;-72
2021/12/27 10:51:21;;;;;;;0.32;0.32;;;11.40;99.90;;;;;;5056184;28;20048;-72
2021/12/27 10:54:00;;;;;;;0.95;0.95;;;11.50;99.90;;;;;;5053158;28;20115;-71
2021/12/27 10:56:47;;;;;;;0.10;0.10;;;11.20;99.90;;;;;;5072311;28;20366;-72
2021/12/27 10:59:18;;;;;;;0.10;0.10;;;11.60;99.90;;;;;;5070754;28;20048;-73
2021/12/27 11:01:47;;;;;;;0.00;0.00;;;12.90;99.90;;;;;;5070768;28;20496;-73
2021/12/27 11:04:18;;;;;;;0.05;0.05;;;12.60;99.90;;;;;;5070460;28;20123;-73
2021/12/27 11:06:45;;;;;;;0.00;0.00;;;12.90;99.90;;;;;;5070528;28;20064;-73
2021/12/27 11:09:14;;;;;;;0.40;0.40;;;13.80;99.90;;;;;;5070507;28;20564;-72
2021/12/27 11:11:41;;;;;;;0.00;0.00;;;13.80;99.90;;;;;;5054410;28;20032;-73
2021/12/27 11:14:07;;;;;;;0.05;0.05;;;12.70;99.90;;;;;;5071537;28;20063;-73
2021/12/27 11:16:34;;;;;;;0.20;0.20;;;12.60;99.90;;;;;;5071976;28;20060;-73
2021/12/27 11:19:00;;;;;;;0.03;0.03;;;12.90;99.90;;;;;;5053531;28;20123;-73
2021/12/27 11:21:38;;;;;;;0.35;0.35;;;12.70;99.90;;;;;;5053927;28;20052;-73
2021/12/27 11:24:04;;;;;;;1.55;0.93;;;12.00;99.90;;;;;;5071478;28;20039;-73
2021/12/27 11:26:34;;;;;;;0.00;0.00;;;11.90;99.90;;;;;;5071922;28;20068;-73
2021/12/27 11:29:19;;;;;;;0.10;0.10;;;11.80;99.90;;;;;;5053937;28;20020;-73
2021/12/27 11:32:11;;;;;;;0.05;0.05;;;11.60;99.90;;;;;;5071512;28;20043;-72
2021/12/27 11:34:59;;;;;;;0.20;0.20;;;11.70;99.90;;;;;;5071030;28;20032;-74
2021/12/27 11:37:56;;;;;;;0.80;0.80;;;11.80;99.90;;;;;;5053695;28;20062;-72
2021/12/27 11:40:22;;;;;;;0.00;0.00;;;12.30;99.90;;;;;;5061877;28;20041;-72
2021/12/27 11:43:02;;;;;;;3.10;1.08;;;13.00;99.90;;;;;;5070214;28;20045;-72
2021/12/27 11:45:57;;;;;;;0.20;0.20;;;13.20;99.90;;;;;;5070222;28;20567;-72
2021/12/27 11:48:26;;;;;;;1.35;0.55;;;13.50;99.90;;;;;;5069953;28;20029;-72
2021/12/27 11:51:06;;;;;;;2.63;0.60;;;12.70;99.90;;;;;;5070265;28;20037;-73
2021/12/27 11:53:35;;;;;;;0.80;0.68;;;12.90;99.90;;;;;;5071445;28;20025;-72
2021/12/27 11:56:09;;;;;;;2.40;1.10;;;12.60;99.90;;;;;;5071229;28;20501;-72
2021/12/27 11:58:43;;;;;;;0.30;0.25;;;12.40;99.90;;;;;;5071248;28;20489;-73
2021/12/27 12:01:21;;;;;;;0.00;0.00;;;12.20;99.90;;;;;;5071615;28;20484;-72
2021/12/27 12:03:49;;;;;;;0.57;0.57;;;12.30;99.90;;;;;;5071431;28;20035;-73
2021/12/27 12:06:42;;;;;;;0.08;0.08;;;11.80;99.90;;;;;;5072661;28;20040;-73
2021/12/27 12:09:19;;;;;;;0.17;0.17;;;12.00;99.90;;;;;;5074998;28;20043;-72
2021/12/27 12:12:00;;;;;;;0.30;0.30;;;11.90;99.90;;;;;;5075269;28;20028;-72
2021/12/27 12:14:37;;;;;;;0.67;0.67;;;11.90;99.90;;;;;;5059550;28;20036;-71
2021/12/27 12:17:13;;;;;;;0.00;0.00;;;11.70;99.90;;;;;;5073548;28;20115;-72
2021/12/27 12:19:42;;;;;;;0.30;0.30;;;11.90;99.90;;;;;;5056905;28;20032;-72
2021/12/27 12:22:42;;;;;;;0.00;0.00;;;11.60;99.90;;;;;;5074846;28;20032;-73
2021/12/27 12:25:19;;;;;;;0.32;0.32;;;11.70;99.90;;;;;;5073191;28;20381;-71
2021/12/27 12:28:09;;;;;;;1.38;0.40;;;11.70;99.90;;;;;;5073616;28;20033;-73
2021/12/27 12:30:40;;;;;;;2.73;0.87;;;11.50;99.90;;;;;;5074761;28;20024;-72
2021/12/27 12:33:17;;;;;;;0.15;0.15;;;11.20;99.90;;;;;;5056571;28;20024;-72
2021/12/27 12:35:54;;;;;;;0.10;0.08;;;11.30;99.90;;;;;;5056864;28;20032;-72
2021/12/27 12:38:35;;;;;;;23.15;2.05;;;10.90;99.90;;;;;;5073295;28;20711;-72
2021/12/27 12:41:01;;;;;;;0.20;0.20;;;10.60;99.90;;;;;;5074133;28;20036;-72
2021/12/27 12:43:51;;;;;;;0.00;0.00;;;10.70;99.90;;;;;;5074636;28;20036;-72
2021/12/27 12:46:45;;;;;;;0.17;0.17;;;10.60;99.90;;;;;;5074058;28;20127;-72
2021/12/27 12:49:24;;;;;;;0.00;0.00;;;10.60;99.90;;;;;;5056670;28;20047;-71
2021/12/27 12:52:01;;;;;;;0.00;0.00;;;10.40;99.90;;;;;;5073120;28;20036;-71
2021/12/27 12:54:34;;;;;;;0.00;0.00;;;10.50;99.90;;;;;;5073348;28;20037;-72
2021/12/27 12:57:15;;;;;;;0.00;0.00;;;10.50;99.90;;;;;;5072994;28;20037;-72
2021/12/27 12:59:54;;;;;;;;;;;10.40;99.90;;;;;;5074586;28;20036;-72
2021/12/27 13:02:29;;;;;;;0.00;0.00;;;10.20;99.90;;;;;;5073991;28;19965;-72
2021/12/27 13:05:08;;;;;;;0.10;0.10;;;10.20;99.90;;;;;;5073747;28;20041;-71
2021/12/27 13:07:48;;;;;;;0.03;0.03;;;10.10;99.90;;;;;;5073959;28;20032;-72
2021/12/27 13:10:30;;;;;;;0.00;0.00;;;10.10;99.90;;;;;;5073882;28;20370;-72
2021/12/27 13:13:17;;;;;;;0.22;0.22;;;10.00;99.90;;;;;;5072222;28;20021;-72
2021/12/27 13:16:09;;;;;;;0.05;0.05;;;10.10;99.90;;;;;;5072649;28;20063;-72